createdAt,value
2018-07-26T00:03:51.468Z,5.70
2018-07-26T00:08:44.715Z,5.30
2018-07-26T00:13:37.896Z,5.60
2018-07-26T00:18:31.062Z,5.55
2018-07-26T00:23:24.209Z,5.63
2018-07-26T00:28:17.449Z,5.60
2018-07-26T00:33:10.682Z,6.20
2018-07-26T00:38:03.967Z,6.00
2018-07-26T00:42:57.118Z,6.10
2018-07-26T00:47:50.379Z,5.80
2018-07-26T00:52:43.610Z,6.00
2018-07-26T00:57:36.866Z,6.73
2018-07-26T01:02:30.089Z,6.47
2018-07-26T01:07:23.322Z,6.25
2018-07-26T01:12:16.570Z,6.07
2018-07-26T01:17:09.791Z,6.15
2018-07-26T01:22:03.133Z,6.00
2018-07-26T01:26:56.313Z,6.47
2018-07-26T01:31:53.044Z,5.97
2018-07-26T01:36:46.298Z,6.30
2018-07-26T01:41:39.534Z,5.50
2018-07-26T01:46:32.788Z,6.50
2018-07-26T01:51:26.079Z,6.60
2018-07-26T01:56:19.374Z,6.23
2018-07-26T02:01:12.990Z,6.45
2018-07-26T02:06:06.474Z,7.10
2018-07-26T02:11:00.296Z,6.70
2018-07-26T02:15:53.767Z,7.00
2018-07-26T02:20:46.937Z,6.90
2018-07-26T02:25:40.047Z,6.60
2018-07-26T02:30:33.344Z,7.10
2018-07-26T02:35:26.574Z,7.53
2018-07-26T02:40:19.884Z,6.90
2018-07-26T02:45:13.134Z,7.03
2018-07-26T02:50:06.573Z,7.10
2018-07-26T02:55:00.057Z,7.37
2018-07-26T02:59:53.211Z,7.75
2018-07-26T03:04:46.458Z,7.70
2018-07-26T03:09:39.724Z,8.10
2018-07-26T03:14:38.644Z,8.20
2018-07-26T03:19:31.863Z,8.53
2018-07-26T03:24:25.012Z,9.15
2018-07-26T03:29:18.273Z,8.47
2018-07-26T03:34:11.512Z,8.50
2018-07-26T03:39:07.945Z,9.27
2018-07-26T03:44:01.057Z,8.37
2018-07-26T03:48:54.320Z,8.97
2018-07-26T03:53:47.686Z,8.80
2018-07-26T03:58:41.898Z,7.87
2018-07-26T04:03:35.157Z,8.10
2018-07-26T04:08:28.372Z,8.18
2018-07-26T04:13:21.606Z,8.87
2018-07-26T04:18:14.851Z,8.73
2018-07-26T04:23:08.025Z,8.97
2018-07-26T04:28:01.947Z,10.77
2018-07-26T04:32:55.198Z,10.80
2018-07-26T04:37:48.436Z,11.83
2018-07-26T04:42:41.691Z,11.55
2018-07-26T04:47:35.066Z,12.00
2018-07-26T04:52:28.435Z,11.43
2018-07-26T04:57:21.697Z,12.20
2018-07-26T05:02:15.051Z,12.13
2018-07-26T05:07:08.194Z,12.30
2018-07-26T05:12:01.539Z,12.90
2018-07-26T05:16:54.809Z,11.55
2018-07-26T05:21:48.065Z,10.50
2018-07-26T05:26:41.375Z,12.03
2018-07-26T05:31:34.665Z,10.60
2018-07-26T05:36:27.872Z,8.98
2018-07-26T05:41:21.025Z,9.67
2018-07-26T05:46:14.266Z,9.73
2018-07-26T05:51:07.552Z,9.20
2018-07-26T05:56:00.914Z,8.53
2018-07-26T06:00:55.027Z,8.97
2018-07-26T06:05:48.301Z,8.95
2018-07-26T06:10:41.571Z,9.00
2018-07-26T06:15:34.833Z,8.65
2018-07-26T06:20:28.162Z,8.23
2018-07-26T06:25:21.326Z,7.65
2018-07-26T06:30:14.606Z,7.00
2018-07-26T06:35:08.652Z,6.27
2018-07-26T06:40:02.008Z,5.60
2018-07-26T06:44:55.286Z,5.30
2018-07-26T06:49:48.529Z,6.60
2018-07-26T06:54:41.689Z,5.47
2018-07-26T06:59:35.025Z,4.90
2018-07-26T07:04:28.268Z,4.50
2018-07-26T07:09:21.622Z,3.87
2018-07-26T07:14:14.978Z,4.42
2018-07-26T07:19:08.458Z,4.30
2018-07-26T07:24:01.765Z,3.95
2018-07-26T07:28:54.912Z,3.50
2018-07-26T07:33:48.390Z,3.00
2018-07-26T07:38:42.153Z,3.07
2018-07-26T07:43:35.631Z,2.83
2018-07-26T07:48:28.911Z,2.85
2018-07-26T07:53:22.184Z,2.70
2018-07-26T07:58:15.440Z,2.50
2018-07-26T08:03:08.710Z,1.97
2018-07-26T08:08:02.073Z,2.50
2018-07-26T08:12:55.311Z,2.33
2018-07-26T08:17:48.579Z,2.40
2018-07-26T08:22:41.862Z,2.77
2018-07-26T08:27:35.148Z,2.60
2018-07-26T08:32:29.050Z,2.50
2018-07-26T08:37:22.245Z,2.70
2018-07-26T08:42:15.568Z,2.50
2018-07-26T08:47:08.840Z,2.70
2018-07-26T08:52:02.177Z,2.60
2018-07-26T08:56:55.402Z,2.43
2018-07-26T09:01:48.700Z,2.47
2018-07-26T09:06:41.881Z,2.60
2018-07-26T09:11:35.111Z,2.70
2018-07-26T09:16:28.371Z,2.40
2018-07-26T09:21:21.631Z,2.50
2018-07-26T09:26:14.923Z,2.60
2018-07-26T09:31:08.164Z,2.40
2018-07-26T09:36:01.444Z,2.70
2018-07-26T09:40:54.684Z,2.50
2018-07-26T09:45:47.939Z,2.43
2018-07-26T09:50:41.169Z,2.70
2018-07-26T09:55:34.445Z,2.80
2018-07-26T10:00:33.191Z,2.67
2018-07-26T10:05:26.469Z,2.67
2018-07-26T10:10:19.796Z,2.27
2018-07-26T10:15:13.073Z,2.57
2018-07-26T10:20:06.571Z,2.60
2018-07-26T10:25:00.076Z,2.50
2018-07-26T10:29:53.416Z,2.70
2018-07-26T10:34:46.660Z,2.80
2018-07-26T10:39:39.856Z,2.70
2018-07-26T10:44:33.960Z,2.67
2018-07-26T10:49:27.185Z,2.40
2018-07-26T10:54:20.445Z,2.50
2018-07-26T10:59:13.715Z,2.63
2018-07-26T11:04:06.981Z,2.47
2018-07-26T11:09:00.245Z,2.57
2018-07-26T11:13:53.532Z,2.70
2018-07-26T11:18:46.783Z,2.80
2018-07-26T11:23:40.026Z,3.00
2018-07-26T11:28:33.227Z,3.00
2018-07-26T11:33:26.488Z,2.40
2018-07-26T11:38:19.777Z,2.37
2018-07-26T11:43:13.027Z,2.93
2018-07-26T11:48:06.184Z,2.77
2018-07-26T11:52:59.429Z,2.83
2018-07-26T11:57:53.130Z,2.60
2018-07-26T12:02:46.466Z,2.40
2018-07-26T12:07:39.744Z,2.37
2018-07-26T12:12:33.099Z,2.60
2018-07-26T12:17:26.384Z,2.40
2018-07-26T12:22:19.639Z,2.47
2018-07-26T12:27:12.862Z,2.23
2018-07-26T12:32:06.274Z,2.60
2018-07-26T12:36:59.538Z,2.80
2018-07-26T12:41:52.878Z,2.67
2018-07-26T12:46:46.144Z,2.50
2018-07-26T12:51:39.407Z,2.50
2018-07-26T12:56:32.747Z,2.70
2018-07-26T13:01:26.462Z,2.50
2018-07-26T13:06:19.783Z,2.63
2018-07-26T13:11:13.042Z,3.00
2018-07-26T13:16:06.522Z,2.50
2018-07-26T13:20:59.818Z,2.50
2018-07-26T13:25:53.064Z,2.30
2018-07-26T13:30:46.354Z,2.33
2018-07-26T13:35:39.608Z,2.20
2018-07-26T13:40:32.878Z,2.37
2018-07-26T13:45:26.140Z,2.10
2018-07-26T13:50:19.808Z,2.23
2018-07-26T13:55:13.068Z,2.27
2018-07-26T14:00:06.452Z,2.30
2018-07-26T14:04:59.704Z,2.30
2018-07-26T14:09:53.024Z,2.53
2018-07-26T14:14:46.307Z,2.50
2018-07-26T14:19:39.563Z,2.17
2018-07-26T14:24:32.705Z,2.30
2018-07-26T14:29:26.049Z,2.10
2018-07-26T14:34:19.254Z,2.00
2018-07-26T14:39:13.006Z,2.20
2018-07-26T14:44:06.684Z,2.20
2018-07-26T14:48:59.978Z,2.20
2018-07-26T14:53:53.216Z,2.33
2018-07-26T14:58:46.394Z,2.13
2018-07-26T15:03:39.586Z,2.27
2018-07-26T15:08:32.835Z,2.17
2018-07-26T15:13:26.661Z,2.20
2018-07-26T15:18:19.922Z,2.20
2018-07-26T15:23:13.229Z,1.97
2018-07-26T15:28:06.546Z,1.90
2018-07-26T15:32:59.777Z,1.80
2018-07-26T15:37:53.019Z,1.83
2018-07-26T15:42:46.339Z,2.27
2018-07-26T15:47:39.637Z,2.10
2018-07-26T15:52:32.935Z,1.90
2018-07-26T15:57:26.224Z,2.37
2018-07-26T16:02:19.541Z,2.23
2018-07-26T16:07:12.821Z,2.30
2018-07-26T16:12:06.098Z,2.23
2018-07-26T16:16:59.380Z,2.17
2018-07-26T16:21:52.624Z,2.17
2018-07-26T16:26:45.881Z,2.30
2018-07-26T16:31:39.170Z,2.40
2018-07-26T16:36:32.440Z,2.20
2018-07-26T16:41:25.698Z,2.10
2018-07-26T16:46:18.987Z,2.07
2018-07-26T16:51:12.256Z,2.30
2018-07-26T16:56:05.641Z,2.77
2018-07-26T17:00:58.934Z,3.00
2018-07-26T17:05:52.305Z,2.90
2018-07-26T17:10:45.722Z,2.50
2018-07-26T17:15:38.857Z,2.93
2018-07-26T17:20:32.176Z,2.77
2018-07-26T17:25:26.001Z,2.90
2018-07-26T17:30:19.332Z,4.07
2018-07-26T17:35:12.607Z,3.03
2018-07-26T17:40:06.325Z,3.20
2018-07-26T17:44:59.632Z,5.13
2018-07-26T17:49:52.882Z,3.70
2018-07-26T17:54:47.120Z,3.23
2018-07-26T17:59:40.396Z,3.30
2018-07-26T18:04:33.732Z,3.57
2018-07-26T18:09:27.038Z,3.40
2018-07-26T18:14:20.324Z,3.50
2018-07-26T18:19:13.578Z,3.93
2018-07-26T18:24:07.193Z,3.80
2018-07-26T18:29:00.496Z,3.97
2018-07-26T18:33:53.696Z,3.77
2018-07-26T18:38:47.022Z,3.30
2018-07-26T18:43:40.359Z,3.37
2018-07-26T18:48:33.587Z,5.60
2018-07-26T18:53:26.793Z,4.03
2018-07-26T18:58:20.115Z,3.37
2018-07-26T19:03:13.404Z,3.10
2018-07-26T19:08:06.971Z,4.33
2018-07-26T19:13:00.862Z,4.03
2018-07-26T19:17:54.144Z,4.13
2018-07-26T19:22:47.434Z,4.40
2018-07-26T19:27:40.646Z,4.40
2018-07-26T19:32:33.925Z,4.90
2018-07-26T19:37:27.181Z,7.27
2018-07-26T19:42:20.479Z,5.80
2018-07-26T19:47:13.790Z,5.83
2018-07-26T19:52:07.490Z,6.22
2018-07-26T19:57:00.715Z,5.42
2018-07-26T20:01:54.071Z,5.80
2018-07-26T20:06:47.604Z,6.75
2018-07-26T20:11:40.888Z,6.30
2018-07-26T20:16:34.182Z,5.80
2018-07-26T20:21:27.373Z,5.80
2018-07-26T20:26:20.674Z,6.00
2018-07-26T20:31:14.014Z,5.70
2018-07-26T20:36:07.320Z,5.97
2018-07-26T20:41:00.595Z,5.27
2018-07-26T20:45:53.871Z,5.87
2018-07-26T20:50:47.253Z,5.57
2018-07-26T20:55:40.363Z,5.33
2018-07-26T21:00:33.679Z,4.83
2018-07-26T21:05:27.070Z,4.90
2018-07-26T21:10:20.265Z,4.77
2018-07-26T21:15:13.538Z,4.80
2018-07-26T21:20:06.860Z,4.90
2018-07-26T21:25:00.406Z,5.00
2018-07-26T21:29:53.830Z,5.00
2018-07-26T21:34:47.314Z,4.90
2018-07-26T21:39:40.660Z,5.33
2018-07-26T21:44:33.987Z,4.87
2018-07-26T21:49:27.237Z,6.78
2018-07-26T21:54:20.560Z,5.80
2018-07-26T21:59:13.794Z,5.78
2018-07-26T22:04:07.063Z,5.57
2018-07-26T22:09:00.384Z,5.20
2018-07-26T22:13:53.710Z,5.10
2018-07-26T22:18:46.976Z,5.10
2018-07-26T22:23:40.171Z,5.03
2018-07-26T22:28:33.493Z,4.12
2018-07-26T22:33:26.754Z,4.20
2018-07-26T22:38:20.064Z,4.15
2018-07-26T22:43:13.348Z,3.77
2018-07-26T22:48:06.753Z,3.40
2018-07-26T22:53:00.087Z,3.00
2018-07-26T22:57:53.332Z,3.58
2018-07-26T23:02:46.632Z,3.20
2018-07-26T23:07:39.924Z,3.22
2018-07-26T23:12:33.136Z,3.70
2018-07-26T23:17:26.380Z,3.62
2018-07-26T23:22:20.693Z,3.63
2018-07-26T23:27:13.941Z,3.37
2018-07-26T23:32:07.270Z,3.50
2018-07-26T23:37:00.546Z,3.50
2018-07-26T23:41:53.798Z,3.47
2018-07-26T23:46:47.096Z,3.40
2018-07-26T23:51:40.420Z,3.23
2018-07-26T23:56:33.687Z,3.45
